TimeCDT,TemperatureF,Dew PointF,Humidity,Sea Level PressureIn,VisibilityMPH,Wind Direction,Wind SpeedMPH,Gust SpeedMPH,PrecipitationIn,Events,Conditions,WindDirDegrees,DateUTC
12:15 AM,62.1,46.9,58,30.06,10.0,SE,3.5,-,N/A,,Mostly Cloudy,140,2013-04-23 05:15:00
12:35 AM,62.1,47.1,58,30.05,10.0,SE,3.5,-,N/A,,Mostly Cloudy,130,2013-04-23 05:35:00
12:55 AM,61.7,47.1,59,30.06,10.0,SE,4.6,-,N/A,,Overcast,130,2013-04-23 05:55:00
1:15 AM,60.4,47.3,62,30.05,10.0,SE,3.5,-,N/A,,Mostly Cloudy,130,2013-04-23 06:15:00
1:35 AM,59.9,46.9,62,30.03,10.0,ESE,4.6,-,N/A,,Scattered Clouds,120,2013-04-23 06:35:00
1:55 AM,59.5,46.9,63,30.03,10.0,SE,5.8,-,N/A,,Scattered Clouds,130,2013-04-23 06:55:00
2:15 AM,58.5,47.3,66,30.03,10.0,SE,4.6,-,N/A,,Scattered Clouds,130,2013-04-23 07:15:00
2:35 AM,58.1,47.1,67,30.03,10.0,SE,4.6,-,N/A,,Clear,140,2013-04-23 07:35:00
2:55 AM,57.4,47.3,69,30.03,10.0,SE,4.6,-,N/A,,Clear,140,2013-04-23 07:55:00
3:15 AM,57.6,46.9,68,30.03,10.0,SE,4.6,-,N/A,,Clear,140,2013-04-23 08:15:00
3:35 AM,56.8,46.8,69,30.03,10.0,SE,4.6,-,N/A,,Clear,140,2013-04-23 08:35:00
3:55 AM,57.4,46.8,68,30.03,10.0,SSE,3.5,-,N/A,,Clear,150,2013-04-23 08:55:00
4:15 AM,56.7,46.6,69,30.03,10.0,SSE,3.5,-,N/A,,Clear,150,2013-04-23 09:15:00
4:35 AM,56.7,46.6,69,30.03,10.0,SSE,4.6,-,N/A,,Clear,150,2013-04-23 09:35:00
4:55 AM,56.3,46.8,70,30.01,10.0,SE,5.8,-,N/A,,Clear,140,2013-04-23 09:55:00
5:15 AM,56.3,46.6,70,29.99,10.0,SE,5.8,-,N/A,,Clear,140,2013-04-23 10:15:00
5:35 AM,56.5,46.6,69,30.00,10.0,SE,3.5,-,N/A,,Clear,140,2013-04-23 10:35:00
5:55 AM,56.3,46.8,70,29.99,10.0,SE,3.5,-,N/A,,Clear,140,2013-04-23 10:55:00
6:15 AM,56.5,46.9,70,29.99,10.0,SE,5.8,-,N/A,,Clear,140,2013-04-23 11:15:00
6:35 AM,57.4,46.9,68,30.00,10.0,South,6.9,-,N/A,,Scattered Clouds,170,2013-04-23 11:35:00
6:55 AM,57.6,47.3,69,30.00,10.0,SSE,6.9,-,N/A,,Scattered Clouds,150,2013-04-23 11:55:00
7:15 AM,58.1,47.7,68,30.00,10.0,SSE,5.8,-,N/A,,Clear,160,2013-04-23 12:15:00
7:35 AM,58.1,48.0,69,29.99,10.0,SSE,4.6,-,N/A,,Clear,150,2013-04-23 12:35:00
7:55 AM,59.0,48.2,67,30.00,10.0,South,5.8,-,N/A,,Scattered Clouds,170,2013-04-23 12:55:00
8:15 AM,59.4,48.7,68,30.00,10.0,South,6.9,-,N/A,,Scattered Clouds,170,2013-04-23 13:15:00
8:35 AM,59.9,49.3,68,30.00,10.0,SSE,8.1,-,N/A,,Mostly Cloudy,160,2013-04-23 13:35:00
8:55 AM,60.3,49.8,68,30.01,10.0,South,9.2,-,N/A,Rain,Light Rain,170,2013-04-23 13:55:00
9:15 AM,59.2,51.3,75,30.01,10.0,South,8.1,-,N/A,Rain,Light Rain,180,2013-04-23 14:15:00
9:35 AM,58.5,52.7,81,30.01,7.0,South,5.8,-,N/A,Rain,Light Rain,180,2013-04-23 14:35:00
9:55 AM,59.2,53.6,82,30.01,10.0,South,5.8,-,N/A,Rain,Light Rain,190,2013-04-23 14:55:00
10:15 AM,59.4,54.5,84,30.02,10.0,SSW,4.6,-,N/A,Rain,Light Rain,200,2013-04-23 15:15:00
10:35 AM,59.9,54.7,83,30.03,10.0,SSW,6.9,-,N/A,Rain,Light Rain,210,2013-04-23 15:35:00
10:55 AM,59.2,54.9,86,30.05,4.0,SW,8.1,-,0.02,Rain,Heavy Rain,230,2013-04-23 15:55:00
11:15 AM,58.1,55.6,91,30.04,4.0,West,5.8,-,0.03,Rain,Light Rain,270,2013-04-23 16:15:00
11:35 AM,57.9,55.9,93,30.02,4.0,SW,4.6,-,0.03,Rain,Rain,220,2013-04-23 16:35:00
11:55 AM,59.0,56.7,92,29.98,7.0,Calm,Calm,-,0.03,,Overcast,0,2013-04-23 16:55:00
12:15 PM,59.2,57.2,93,29.97,7.0,SE,3.5,-,N/A,,Overcast,140,2013-04-23 17:15:00
12:35 PM,60.1,58.1,93,29.96,7.0,SE,5.8,-,N/A,,Mostly Cloudy,130,2013-04-23 17:35:00
12:55 PM,59.9,57.7,93,29.96,7.0,Calm,Calm,-,N/A,,Mostly Cloudy,0,2013-04-23 17:55:00
1:15 PM,60.6,58.3,92,29.94,7.0,SSE,5.8,-,N/A,,Overcast,150,2013-04-23 18:15:00
1:35 PM,61.0,58.1,90,29.93,10.0,SE,3.5,-,N/A,,Overcast,130,2013-04-23 18:35:00
1:55 PM,61.3,58.1,89,29.94,10.0,South,4.6,-,N/A,,Overcast,170,2013-04-23 18:55:00
2:15 PM,61.2,58.1,90,29.93,7.0,SSE,4.6,-,N/A,Rain,Heavy Rain,150,2013-04-23 19:15:00
2:35 PM,61.3,59.2,93,29.91,7.0,ESE,3.5,-,N/A,,Overcast,110,2013-04-23 19:35:00
2:55 PM,61.3,59.0,92,29.90,7.0,SE,3.5,-,N/A,,Overcast,130,2013-04-23 19:55:00
3:15 PM,61.3,59.4,93,29.89,7.0,ESE,3.5,-,N/A,Rain,Rain,110,2013-04-23 20:15:00
3:35 PM,61.7,59.5,93,29.89,7.0,Calm,Calm,-,N/A,Rain,Rain,0,2013-04-23 20:35:00
3:55 PM,61.2,60.3,97,29.86,2.5,Calm,Calm,-,0.05,Rain,Heavy Rain,0,2013-04-23 20:55:00
4:15 PM,61.0,60.8,99,29.85,1.8,East,3.5,-,0.06,Rain,Rain,100,2013-04-23 21:15:00
4:35 PM,61.3,61.2,99,29.85,3.0,SSE,4.6,-,0.06,,Heavy Drizzle,160,2013-04-23 21:35:00
4:55 PM,61.7,61.5,99,29.85,2.0,Calm,Calm,-,0.06,Rain,Rain,0,2013-04-23 21:55:00
5:15 PM,61.7,61.7,100,29.85,2.0,SSW,3.5,-,0.05,Rain,Heavy Rain,210,2013-04-23 22:15:00
5:35 PM,61.7,61.7,100,29.84,1.8,SW,3.5,-,0.09,Rain-Thunderstorm,Rain,220,2013-04-23 22:35:00
5:55 PM,61.2,61.2,100,29.84,1.2,Calm,Calm,-,0.09,Rain,Rain,0,2013-04-23 22:55:00
6:15 PM,61.0,61.0,100,29.83,1.2,Calm,Calm,-,0.01,Rain,Rain,0,2013-04-23 23:15:00
6:35 PM,60.8,60.8,100,29.83,1.0,NW,5.8,-,0.02,Rain-Thunderstorm,Heavy Thunderstorms and Rain,310,2013-04-23 23:35:00
6:55 PM,55.2,55.2,100,29.83,5.0,North,16.1,20.7,0.09,Rain-Thunderstorm,Thunderstorms and Rain,350,2013-04-23 23:55:00
7:15 PM,50.5,50.4,99,29.86,7.0,NNW,15.0,27.6,0.01,Rain-Thunderstorm,Heavy Thunderstorms and Rain,330,2013-04-24 00:15:00
7:35 PM,49.1,49.1,100,29.87,10.0,NNW,15.0,19.6,0.01,Rain-Thunderstorm,Thunderstorms and Rain,330,2013-04-24 00:35:00
7:55 PM,48.2,48.2,100,29.88,7.0,NW,13.8,-,0.15,Rain-Thunderstorm,Light Thunderstorms and Rain,320,2013-04-24 00:55:00
8:15 PM,47.5,47.5,100,29.88,7.0,NNW,16.1,-,N/A,Rain,Light Rain,330,2013-04-24 01:15:00
8:35 PM,46.8,46.6,99,29.94,1.8,WNW,17.3,21.9,0.06,Rain,Light Rain,300,2013-04-24 01:35:00
8:55 PM,45.9,45.5,99,29.91,7.0,NNW,15.0,-,0.13,Rain-Thunderstorm,Heavy Thunderstorms and Rain,340,2013-04-24 01:55:00
9:15 PM,45.5,45.5,100,29.93,10.0,NNW,12.7,-,N/A,Rain,Rain,330,2013-04-24 02:15:00
9:35 PM,45.5,45.3,99,29.93,10.0,NNW,13.8,-,N/A,Rain,Light Rain,340,2013-04-24 02:35:00
9:55 PM,45.5,45.1,99,29.94,7.0,NW,10.4,16.1,N/A,Rain,Rain,320,2013-04-24 02:55:00
10:15 PM,45.5,45.1,99,29.95,7.0,NW,10.4,-,0.01,Rain,Rain,320,2013-04-24 03:15:00
10:35 PM,45.1,45.0,99,29.95,7.0,NW,10.4,-,0.01,Rain,Rain,320,2013-04-24 03:35:00
10:55 PM,44.8,44.6,99,29.95,5.0,NW,9.2,-,0.02,Rain,Rain,320,2013-04-24 03:55:00
11:15 PM,44.6,43.9,97,29.94,7.0,NNW,13.8,17.3,0.01,Rain,Heavy Rain,330,2013-04-24 04:15:00
11:35 PM,44.6,43.9,97,29.96,10.0,NW,11.5,-,0.02,Rain,Rain,310,2013-04-24 04:35:00
11:55 PM,44.2,43.9,99,29.96,5.0,NW,10.4,17.3,0.03,Rain,Heavy Rain,310,2013-04-24 04:55:00